Terminal Aerodrome Forecast
Issued by NWS

Home | Current Version | Previous Version | Text Only | Print | Product List | Glossary On
Versions: 1 2 3 4 5 6 7 8 9 10 11 12 13 14 15 16 17 18
000
FTUS46 KSEW 192300
TAFPAE
TAF
KPAE 192320Z 2000/2024 18017G24KT P6SM -SHRA BKN010 BKN025 OVC040
     FM200600 17014KT P6SM -SHRA BKN030 BKN060
     FM201100 16007KT P6SM BKN030
     FM202000 20008KT P6SM SCT030 BKN070=

USA.gov is the U.S. government's official web portal to all federal, state and local government web resources and services.